createdAt,value
2023-09-29T00:01:43.704Z,56.63
2023-09-29T00:04:11.302Z,56.59
2023-09-29T00:06:38.164Z,56.60
2023-09-29T00:09:07.679Z,56.78
2023-09-29T00:11:35.114Z,56.44
2023-09-29T00:14:02.372Z,56.46
2023-09-29T00:16:29.224Z,56.80
2023-09-29T00:18:57.018Z,56.73
2023-09-29T00:21:24.246Z,56.91
2023-09-29T00:23:51.260Z,57.00
2023-09-29T00:26:18.538Z,56.95
2023-09-29T00:28:45.592Z,56.66
2023-09-29T00:31:12.477Z,56.98
2023-09-29T00:33:39.375Z,57.04
2023-09-29T00:36:06.409Z,57.04
2023-09-29T00:38:34.692Z,56.74
2023-09-29T00:41:02.378Z,56.85
2023-09-29T00:43:29.578Z,56.75
2023-09-29T00:45:57.074Z,56.88
2023-09-29T00:48:24.303Z,56.96
2023-09-29T00:50:51.603Z,56.95
2023-09-29T00:53:20.332Z,56.81
2023-09-29T00:55:49.287Z,56.85
2023-09-29T00:58:17.037Z,57.08
2023-09-29T01:00:46.221Z,56.95
2023-09-29T01:03:16.281Z,57.13
2023-09-29T01:05:48.001Z,56.91
2023-09-29T01:08:21.622Z,57.11
2023-09-29T01:10:50.026Z,57.15
2023-09-29T01:13:17.418Z,57.13
2023-09-29T01:15:44.342Z,57.22
2023-09-29T01:18:11.833Z,57.36
2023-09-29T01:20:40.782Z,57.52
2023-09-29T01:23:08.509Z,57.54
2023-09-29T01:25:36.313Z,57.49
2023-09-29T01:28:08.667Z,57.51
2023-09-29T01:30:37.539Z,57.38
2023-09-29T01:33:05.000Z,57.50
2023-09-29T01:35:32.004Z,57.31
2023-09-29T01:38:02.376Z,57.45
2023-09-29T01:40:30.025Z,57.55
2023-09-29T01:42:57.713Z,57.55
2023-09-29T01:45:26.497Z,57.62
2023-09-29T01:47:53.868Z,57.59
2023-09-29T01:50:22.424Z,57.71
2023-09-29T01:52:51.014Z,57.74
2023-09-29T01:55:23.935Z,57.37
2023-09-29T01:57:54.750Z,57.69
2023-09-29T02:00:31.216Z,57.62
2023-09-29T02:03:01.492Z,57.68
2023-09-29T02:05:28.663Z,57.53
2023-09-29T02:07:55.899Z,58.00
2023-09-29T02:10:23.820Z,57.69
2023-09-29T02:12:59.264Z,57.71
2023-09-29T02:15:27.846Z,57.66
2023-09-29T02:17:55.175Z,57.91
2023-09-29T02:20:29.670Z,57.93
2023-09-29T02:22:57.355Z,57.79
2023-09-29T02:25:27.362Z,58.34
2023-09-29T02:27:58.258Z,58.45
2023-09-29T02:30:26.677Z,58.30
2023-09-29T02:32:54.576Z,58.60
2023-09-29T02:35:22.058Z,58.53
2023-09-29T02:37:49.325Z,58.65
2023-09-29T02:40:16.290Z,58.56
2023-09-29T02:42:45.612Z,58.43
2023-09-29T02:45:13.134Z,58.85
2023-09-29T02:47:43.362Z,58.65
2023-09-29T02:50:12.053Z,58.63
2023-09-29T02:52:40.848Z,58.61
2023-09-29T02:55:13.795Z,58.71
2023-09-29T02:57:44.406Z,58.93
2023-09-29T03:00:16.892Z,58.86
2023-09-29T03:02:44.461Z,59.11
2023-09-29T03:05:15.836Z,58.95
2023-09-29T03:07:43.757Z,59.07
2023-09-29T03:10:15.845Z,58.75
2023-09-29T03:12:44.434Z,59.31
2023-09-29T03:15:14.758Z,59.00
2023-09-29T03:17:41.649Z,59.24
2023-09-29T03:20:12.414Z,59.22
2023-09-29T03:22:44.559Z,58.90
2023-09-29T03:25:12.069Z,59.13
2023-09-29T03:27:40.290Z,59.44
2023-09-29T03:30:09.744Z,59.31
2023-09-29T03:32:36.715Z,59.21
2023-09-29T03:35:06.182Z,59.71
2023-09-29T03:37:39.113Z,59.46
2023-09-29T03:40:09.664Z,59.63
2023-09-29T03:42:38.391Z,59.75
2023-09-29T03:45:07.002Z,59.44
2023-09-29T03:47:37.387Z,59.47
2023-09-29T03:50:13.469Z,59.65
2023-09-29T03:52:43.267Z,59.73
2023-09-29T03:55:11.213Z,60.21
2023-09-29T03:57:39.590Z,59.81
2023-09-29T04:00:12.500Z,59.95
2023-09-29T04:02:43.061Z,60.06
2023-09-29T04:05:10.650Z,60.15
2023-09-29T04:07:40.689Z,60.10
2023-09-29T04:10:09.907Z,60.15
2023-09-29T04:12:38.811Z,60.09
2023-09-29T04:15:08.261Z,60.19
2023-09-29T04:17:36.817Z,60.21
2023-09-29T04:20:05.380Z,60.30
2023-09-29T04:22:33.096Z,60.10
2023-09-29T04:25:00.451Z,60.47
2023-09-29T04:27:27.508Z,59.85
2023-09-29T04:29:55.049Z,60.39
2023-09-29T04:32:22.142Z,60.11
2023-09-29T04:34:49.049Z,60.11
2023-09-29T04:37:15.905Z,60.09
2023-09-29T04:39:42.988Z,60.25
2023-09-29T04:42:10.572Z,60.15
2023-09-29T04:44:38.481Z,60.06
2023-09-29T04:47:05.603Z,60.03
2023-09-29T04:49:32.791Z,60.36
2023-09-29T04:51:59.626Z,60.11
2023-09-29T04:54:26.916Z,60.23
2023-09-29T04:56:53.804Z,60.20
2023-09-29T04:59:20.645Z,60.09
2023-09-29T05:01:47.495Z,60.34
2023-09-29T05:04:14.470Z,59.95
2023-09-29T05:06:41.456Z,60.18
2023-09-29T05:09:08.302Z,60.04
2023-09-29T05:11:35.267Z,60.41
2023-09-29T05:14:02.422Z,60.37
2023-09-29T05:16:29.286Z,60.31
2023-09-29T05:18:56.739Z,60.41
2023-09-29T05:21:25.728Z,60.55
2023-09-29T05:23:52.595Z,60.39
2023-09-29T05:26:19.524Z,60.46
2023-09-29T05:28:46.439Z,60.42
2023-09-29T05:31:13.320Z,60.77
2023-09-29T05:33:40.285Z,60.67
2023-09-29T05:36:07.292Z,60.51
2023-09-29T05:38:34.153Z,60.53
2023-09-29T05:41:01.208Z,60.37
2023-09-29T05:43:28.064Z,60.52
2023-09-29T05:45:54.972Z,60.40
2023-09-29T05:48:21.914Z,60.61
2023-09-29T05:50:51.020Z,60.52
2023-09-29T05:53:18.003Z,60.76
2023-09-29T05:55:44.988Z,60.65
2023-09-29T05:58:11.805Z,60.65
2023-09-29T06:00:38.736Z,60.42
2023-09-29T06:03:05.956Z,60.75
2023-09-29T06:05:33.024Z,60.70
2023-09-29T06:07:59.929Z,60.51
2023-09-29T06:10:27.225Z,60.48
2023-09-29T06:12:54.533Z,60.74
2023-09-29T06:15:21.471Z,60.88
2023-09-29T06:17:48.570Z,60.80
2023-09-29T06:20:15.594Z,60.86
2023-09-29T06:22:42.428Z,60.82
2023-09-29T06:25:10.381Z,60.84
2023-09-29T06:27:37.235Z,60.57
2023-09-29T06:30:05.206Z,60.55
2023-09-29T06:32:32.140Z,60.99
2023-09-29T06:34:59.205Z,60.90
2023-09-29T06:37:26.006Z,60.64
2023-09-29T06:39:53.695Z,60.99
2023-09-29T06:42:21.113Z,60.93
2023-09-29T06:44:48.060Z,60.79
2023-09-29T06:47:15.075Z,60.86
2023-09-29T06:49:41.957Z,60.65
2023-09-29T06:52:08.868Z,60.76
2023-09-29T06:54:35.734Z,60.93
2023-09-29T06:57:02.654Z,60.95
2023-09-29T06:59:29.590Z,61.00
2023-09-29T07:01:56.516Z,61.18
2023-09-29T07:04:23.547Z,60.99
2023-09-29T07:06:50.571Z,60.99
2023-09-29T07:09:17.573Z,61.37
2023-09-29T07:11:45.654Z,61.35
2023-09-29T07:14:12.969Z,61.11
2023-09-29T07:16:40.922Z,61.26
2023-09-29T07:19:08.022Z,61.39
2023-09-29T07:21:34.961Z,61.58
2023-09-29T07:24:01.830Z,61.44
2023-09-29T07:26:28.660Z,61.55
2023-09-29T07:28:55.958Z,61.76
2023-09-29T07:31:23.189Z,61.87
2023-09-29T07:33:50.301Z,61.87
2023-09-29T07:36:17.530Z,61.61
2023-09-29T07:38:44.509Z,61.65
2023-09-29T07:41:11.825Z,62.02
2023-09-29T07:43:38.694Z,61.71
2023-09-29T07:46:05.725Z,61.84
2023-09-29T07:48:32.657Z,61.80
2023-09-29T07:51:00.570Z,61.82
2023-09-29T07:53:27.542Z,61.49
2023-09-29T07:55:54.369Z,61.89
2023-09-29T07:58:21.217Z,61.73
2023-09-29T08:00:48.080Z,61.78
2023-09-29T08:03:15.297Z,61.79
2023-09-29T08:05:42.304Z,61.94
2023-09-29T08:08:09.295Z,62.06
2023-09-29T08:10:36.376Z,62.04
2023-09-29T08:13:03.232Z,62.29
2023-09-29T08:15:30.071Z,62.11
2023-09-29T08:17:56.965Z,62.40
2023-09-29T08:20:23.878Z,62.43
2023-09-29T08:22:51.504Z,62.28
2023-09-29T08:25:21.158Z,62.34
2023-09-29T08:27:48.000Z,62.42
2023-09-29T08:30:15.229Z,62.44
2023-09-29T08:32:44.896Z,62.34
2023-09-29T08:35:16.131Z,62.15
2023-09-29T08:37:45.033Z,62.50
2023-09-29T08:40:17.633Z,62.40
2023-09-29T08:42:50.546Z,62.27
2023-09-29T08:45:19.450Z,62.26
2023-09-29T08:47:51.596Z,62.36
2023-09-29T08:50:18.969Z,62.32
2023-09-29T08:52:46.763Z,62.52
2023-09-29T08:55:14.131Z,62.49
2023-09-29T08:57:45.333Z,62.50
2023-09-29T09:00:14.030Z,62.10
2023-09-29T09:02:45.833Z,62.00
2023-09-29T09:05:16.139Z,62.38
2023-09-29T09:07:44.649Z,62.01
2023-09-29T09:10:23.078Z,62.02
2023-09-29T09:13:00.512Z,61.78
2023-09-29T09:15:28.120Z,61.78
2023-09-29T09:17:56.085Z,61.82
2023-09-29T09:20:24.935Z,61.78
2023-09-29T09:23:04.790Z,61.61
2023-09-29T09:25:44.342Z,61.48
2023-09-29T09:28:20.593Z,61.56
2023-09-29T09:30:52.530Z,61.41
2023-09-29T09:33:22.740Z,61.38
2023-09-29T09:35:51.128Z,60.97
2023-09-29T09:38:18.769Z,61.10
2023-09-29T09:40:48.704Z,60.79
2023-09-29T09:43:16.822Z,60.78
2023-09-29T09:45:48.800Z,60.57
2023-09-29T09:48:22.026Z,60.65
2023-09-29T09:50:52.439Z,60.60
2023-09-29T09:53:22.120Z,60.63
2023-09-29T09:55:57.118Z,60.49
2023-09-29T09:58:24.867Z,60.46
2023-09-29T10:00:56.378Z,60.38
2023-09-29T10:03:26.398Z,60.30
2023-09-29T10:05:54.769Z,60.29
2023-09-29T10:08:40.331Z,60.07
2023-09-29T10:11:16.110Z,60.16
2023-09-29T10:13:45.694Z,60.13
2023-09-29T10:16:24.619Z,59.79
2023-09-29T10:18:57.280Z,59.88
2023-09-29T10:21:24.247Z,59.46
2023-09-29T10:23:51.834Z,59.43
2023-09-29T10:26:21.814Z,59.45
2023-09-29T10:28:48.752Z,59.41
2023-09-29T10:31:28.985Z,59.42
2023-09-29T10:33:57.981Z,59.44
2023-09-29T10:36:27.136Z,59.60
2023-09-29T10:39:01.116Z,59.52
2023-09-29T10:41:36.409Z,59.75
2023-09-29T10:44:05.605Z,59.54
2023-09-29T10:46:32.956Z,59.57
2023-09-29T10:49:00.365Z,59.72
2023-09-29T10:51:31.692Z,59.48
2023-09-29T10:54:04.692Z,59.83
2023-09-29T10:56:31.743Z,59.23
2023-09-29T10:58:59.798Z,59.25
2023-09-29T11:01:33.464Z,59.35
2023-09-29T11:04:10.001Z,59.11
2023-09-29T11:06:48.216Z,59.22
2023-09-29T11:09:21.982Z,59.01
2023-09-29T11:11:49.993Z,58.85
2023-09-29T11:14:18.273Z,59.14
2023-09-29T11:16:56.187Z,58.93
2023-09-29T11:19:23.026Z,58.93
2023-09-29T11:21:51.246Z,58.63
2023-09-29T11:24:20.790Z,58.29
2023-09-29T11:26:49.550Z,58.29
2023-09-29T11:29:24.610Z,57.80
2023-09-29T11:31:55.220Z,57.73
2023-09-29T11:34:22.993Z,57.64
2023-09-29T11:36:51.263Z,57.16
2023-09-29T11:39:20.646Z,57.45
2023-09-29T11:41:47.788Z,57.31
2023-09-29T11:44:17.072Z,57.11
2023-09-29T11:46:45.036Z,56.61
2023-09-29T11:49:12.748Z,56.58
2023-09-29T11:51:39.708Z,56.45
2023-09-29T11:54:07.051Z,56.61
2023-09-29T11:56:34.575Z,56.45
2023-09-29T11:59:01.491Z,56.45
2023-09-29T12:01:28.768Z,56.28
2023-09-29T12:03:57.100Z,56.14
2023-09-29T12:06:24.294Z,56.38
2023-09-29T12:08:51.267Z,55.93
2023-09-29T12:11:20.367Z,56.01
2023-09-29T12:13:48.961Z,56.24
2023-09-29T12:16:16.445Z,56.29
2023-09-29T12:18:43.991Z,56.29
2023-09-29T12:21:12.867Z,55.87
2023-09-29T12:23:40.827Z,55.54
2023-09-29T12:26:09.232Z,55.79
2023-09-29T12:28:36.610Z,55.51
2023-09-29T12:31:03.961Z,55.78
2023-09-29T12:33:31.083Z,55.09
2023-09-29T12:35:58.076Z,55.13
2023-09-29T12:38:24.931Z,55.29
2023-09-29T12:40:52.777Z,55.30
2023-09-29T12:43:19.565Z,55.32
2023-09-29T12:45:46.439Z,55.72
2023-09-29T12:48:13.292Z,55.71
2023-09-29T12:50:41.501Z,55.06
2023-09-29T12:53:08.360Z,55.11
2023-09-29T12:55:38.931Z,54.51
2023-09-29T12:58:09.992Z,54.72
2023-09-29T13:00:37.030Z,54.73
2023-09-29T13:03:07.563Z,54.75
2023-09-29T13:05:39.195Z,54.57
2023-09-29T13:08:07.118Z,54.55
2023-09-29T13:10:38.284Z,54.49
2023-09-29T13:13:06.677Z,54.85
2023-09-29T13:15:34.362Z,55.04
2023-09-29T13:18:01.570Z,54.34
2023-09-29T13:20:28.546Z,54.51
2023-09-29T13:22:55.864Z,54.63
2023-09-29T13:25:23.200Z,54.72
2023-09-29T13:27:50.314Z,54.11
2023-09-29T13:30:18.109Z,54.29
2023-09-29T13:32:45.528Z,54.37
2023-09-29T13:35:12.544Z,54.50
2023-09-29T13:37:41.249Z,54.81
2023-09-29T13:40:08.972Z,54.70
2023-09-29T13:42:37.426Z,54.64
2023-09-29T13:45:06.321Z,54.75
2023-09-29T13:47:34.329Z,54.13
2023-09-29T13:50:02.014Z,54.13
2023-09-29T13:52:30.504Z,54.66
2023-09-29T13:54:57.425Z,54.22
2023-09-29T13:57:25.115Z,54.14
2023-09-29T13:59:52.179Z,54.46
2023-09-29T14:02:19.055Z,54.81
2023-09-29T14:04:46.387Z,54.64
2023-09-29T14:07:13.530Z,54.42
2023-09-29T14:09:41.211Z,53.83
2023-09-29T14:12:11.409Z,53.98
2023-09-29T14:14:38.571Z,53.98
2023-09-29T14:17:06.158Z,53.92
2023-09-29T14:19:33.522Z,54.06
2023-09-29T14:22:00.421Z,54.45
2023-09-29T14:24:27.283Z,54.22
2023-09-29T14:26:54.202Z,54.44
2023-09-29T14:29:21.211Z,54.74
2023-09-29T14:31:48.605Z,54.60
2023-09-29T14:34:16.876Z,54.57
2023-09-29T14:36:44.671Z,54.07
2023-09-29T14:39:12.116Z,54.22
2023-09-29T14:41:39.206Z,53.83
2023-09-29T14:44:06.803Z,53.75
2023-09-29T14:46:34.166Z,53.78
2023-09-29T14:49:02.337Z,53.29
2023-09-29T14:51:29.702Z,53.48
2023-09-29T14:53:56.841Z,53.71
2023-09-29T14:56:24.663Z,53.55
2023-09-29T14:58:51.562Z,53.55
2023-09-29T15:01:19.215Z,53.12
2023-09-29T15:03:46.784Z,52.84
2023-09-29T15:06:15.533Z,53.07
2023-09-29T15:08:42.864Z,52.69
2023-09-29T15:11:11.554Z,52.21
2023-09-29T15:13:40.852Z,52.66
2023-09-29T15:16:14.717Z,52.33
2023-09-29T15:18:50.675Z,51.61
2023-09-29T15:21:21.361Z,51.26
2023-09-29T15:23:56.010Z,51.14
2023-09-29T15:26:25.338Z,50.92
2023-09-29T15:28:52.383Z,50.57
2023-09-29T15:31:19.354Z,50.73
2023-09-29T15:33:46.569Z,50.45
2023-09-29T15:36:13.654Z,50.35
2023-09-29T15:38:40.886Z,50.62
2023-09-29T15:41:09.026Z,50.82
2023-09-29T15:43:36.115Z,50.72
2023-09-29T15:46:14.093Z,50.49
2023-09-29T15:48:43.848Z,50.30
2023-09-29T15:51:12.148Z,50.31
2023-09-29T15:53:41.949Z,50.18
2023-09-29T15:56:08.841Z,50.43
2023-09-29T15:58:38.922Z,50.54
2023-09-29T16:01:08.229Z,50.22
2023-09-29T16:03:35.324Z,50.45
2023-09-29T16:06:06.790Z,50.37
2023-09-29T16:08:34.706Z,50.49
2023-09-29T16:11:02.140Z,50.66
2023-09-29T16:13:29.179Z,50.51
2023-09-29T16:15:57.120Z,50.78
2023-09-29T16:18:24.222Z,50.85
2023-09-29T16:20:51.206Z,50.47
2023-09-29T16:23:18.235Z,50.56
2023-09-29T16:25:45.099Z,50.66
2023-09-29T16:28:12.384Z,50.64
2023-09-29T16:30:39.709Z,50.87
2023-09-29T16:33:06.911Z,50.83
2023-09-29T16:35:37.375Z,50.83
2023-09-29T16:38:05.194Z,51.03
2023-09-29T16:40:32.008Z,50.67
2023-09-29T16:42:58.911Z,50.81
2023-09-29T16:45:25.878Z,50.92
2023-09-29T16:47:52.782Z,50.59
2023-09-29T16:50:19.916Z,50.75
2023-09-29T16:52:46.873Z,50.92
2023-09-29T16:55:13.697Z,50.44
2023-09-29T16:57:40.576Z,50.51
2023-09-29T17:00:09.339Z,50.84
2023-09-29T17:02:36.451Z,50.85
2023-09-29T17:05:04.030Z,50.56
2023-09-29T17:07:30.848Z,50.57
2023-09-29T17:09:57.688Z,50.61
2023-09-29T17:12:24.711Z,50.73
2023-09-29T17:14:51.727Z,50.59
2023-09-29T17:17:18.671Z,50.92
2023-09-29T17:19:50.313Z,50.93
2023-09-29T17:22:18.565Z,50.74
2023-09-29T17:24:45.586Z,50.76
2023-09-29T17:27:14.255Z,50.33
2023-09-29T17:29:41.088Z,50.30
2023-09-29T17:32:07.967Z,50.60
2023-09-29T17:34:35.113Z,50.53
2023-09-29T17:37:01.969Z,50.87
2023-09-29T17:39:28.855Z,51.28
2023-09-29T17:41:55.757Z,51.27
2023-09-29T17:44:22.832Z,52.42
2023-09-29T17:46:49.805Z,53.31
2023-09-29T17:49:16.848Z,54.18
2023-09-29T17:51:43.966Z,54.59
2023-09-29T17:54:11.324Z,55.57
2023-09-29T17:56:38.200Z,55.72
2023-09-29T17:59:05.117Z,56.03
2023-09-29T18:01:32.535Z,56.85
2023-09-29T18:04:00.165Z,57.08
2023-09-29T18:06:30.064Z,57.22
2023-09-29T18:08:57.345Z,57.87
2023-09-29T18:11:24.743Z,57.91
2023-09-29T18:13:51.725Z,58.01
2023-09-29T18:16:18.634Z,58.37
2023-09-29T18:18:46.667Z,58.67
2023-09-29T18:21:13.737Z,58.75
2023-09-29T18:23:40.745Z,59.04
2023-09-29T18:26:08.954Z,59.30
2023-09-29T18:28:36.474Z,59.38
2023-09-29T18:31:08.073Z,59.61
2023-09-29T18:33:35.272Z,59.82
2023-09-29T18:36:03.444Z,59.69
2023-09-29T18:38:30.537Z,59.90
2023-09-29T18:40:57.557Z,59.92
2023-09-29T18:43:24.481Z,60.16
2023-09-29T18:46:00.835Z,60.06
2023-09-29T18:48:27.851Z,60.05
2023-09-29T18:50:55.127Z,60.37
2023-09-29T18:53:22.005Z,60.36
2023-09-29T18:55:49.034Z,60.74
2023-09-29T18:58:16.060Z,60.56
2023-09-29T19:00:42.951Z,60.72
2023-09-29T19:03:09.895Z,60.84
2023-09-29T19:05:38.988Z,61.02
2023-09-29T19:08:06.408Z,61.11
2023-09-29T19:10:33.652Z,61.10
2023-09-29T19:13:00.718Z,61.08
2023-09-29T19:15:27.654Z,61.46
2023-09-29T19:17:54.549Z,61.28
2023-09-29T19:20:21.580Z,61.53
2023-09-29T19:22:50.664Z,61.62
2023-09-29T19:25:18.871Z,61.64
2023-09-29T19:27:46.160Z,61.62
2023-09-29T19:30:13.426Z,61.33
2023-09-29T19:32:41.174Z,61.67
2023-09-29T19:35:08.561Z,61.15
2023-09-29T19:37:35.599Z,61.27
2023-09-29T19:40:02.472Z,61.12
2023-09-29T19:42:29.382Z,61.19
2023-09-29T19:44:56.298Z,61.19
2023-09-29T19:47:23.469Z,61.42
2023-09-29T19:49:50.294Z,61.29
2023-09-29T19:52:18.636Z,61.12
2023-09-29T19:54:45.595Z,61.37
2023-09-29T19:57:12.841Z,61.43
2023-09-29T19:59:39.646Z,60.96
2023-09-29T20:02:06.950Z,61.09
2023-09-29T20:04:33.883Z,61.27
2023-09-29T20:07:00.797Z,60.83
2023-09-29T20:09:27.727Z,61.02
2023-09-29T20:11:55.452Z,61.02
2023-09-29T20:14:22.279Z,61.23
2023-09-29T20:16:49.392Z,60.92
2023-09-29T20:19:16.577Z,60.83
2023-09-29T20:21:43.712Z,60.99
2023-09-29T20:24:10.828Z,60.73
2023-09-29T20:26:39.006Z,61.13
2023-09-29T20:29:06.029Z,60.73
2023-09-29T20:31:32.909Z,61.26
2023-09-29T20:34:00.586Z,61.00
2023-09-29T20:36:30.475Z,60.92
2023-09-29T20:39:04.347Z,60.54
2023-09-29T20:41:31.359Z,60.50
2023-09-29T20:43:58.421Z,60.58
2023-09-29T20:46:25.462Z,60.18
2023-09-29T20:48:52.424Z,59.98
2023-09-29T20:51:19.328Z,59.98
2023-09-29T20:53:46.351Z,60.03
2023-09-29T20:56:13.573Z,59.82
2023-09-29T20:58:40.696Z,59.71
2023-09-29T21:01:07.665Z,59.77
2023-09-29T21:03:35.465Z,59.62
2023-09-29T21:06:02.575Z,59.20
2023-09-29T21:08:29.522Z,59.39
2023-09-29T21:10:59.523Z,59.37
2023-09-29T21:13:26.329Z,59.55
2023-09-29T21:15:54.111Z,59.37
2023-09-29T21:18:22.285Z,59.16
2023-09-29T21:20:54.404Z,59.35
2023-09-29T21:23:21.499Z,59.43
2023-09-29T21:25:49.746Z,59.52
2023-09-29T21:28:16.684Z,59.41
2023-09-29T21:30:46.864Z,59.54
2023-09-29T21:33:13.821Z,58.95
2023-09-29T21:35:40.732Z,59.28
2023-09-29T21:38:08.141Z,59.09
2023-09-29T21:40:35.033Z,58.95
2023-09-29T21:43:01.874Z,58.74
2023-09-29T21:45:28.829Z,58.90
2023-09-29T21:47:55.747Z,58.82
2023-09-29T21:50:22.838Z,58.74
2023-09-29T21:52:49.755Z,58.80
2023-09-29T21:55:16.571Z,58.92
2023-09-29T21:57:44.113Z,59.09
2023-09-29T22:00:17.599Z,58.83
2023-09-29T22:02:45.840Z,58.79
2023-09-29T22:05:19.198Z,58.90
2023-09-29T22:07:46.044Z,58.79
2023-09-29T22:10:15.318Z,58.87
2023-09-29T22:12:43.749Z,58.91
2023-09-29T22:15:14.561Z,58.97
2023-09-29T22:17:42.557Z,58.99
2023-09-29T22:20:11.674Z,58.99
2023-09-29T22:22:39.713Z,58.60
2023-09-29T22:25:07.707Z,58.86
2023-09-29T22:27:36.539Z,59.05
2023-09-29T22:30:06.268Z,58.81
2023-09-29T22:32:33.217Z,58.77
2023-09-29T22:35:00.482Z,58.49
2023-09-29T22:37:27.396Z,58.60
2023-09-29T22:39:54.235Z,58.58
2023-09-29T22:42:22.438Z,58.74
2023-09-29T22:44:50.171Z,58.65
2023-09-29T22:47:17.221Z,58.60
2023-09-29T22:49:44.794Z,58.56
2023-09-29T22:52:12.707Z,58.68
2023-09-29T22:54:40.033Z,58.39
2023-09-29T22:57:07.267Z,58.50
2023-09-29T22:59:34.513Z,58.42
2023-09-29T23:02:01.865Z,58.44
2023-09-29T23:04:31.228Z,58.57
2023-09-29T23:06:58.324Z,58.84
2023-09-29T23:09:28.790Z,58.53
2023-09-29T23:11:59.108Z,58.49
2023-09-29T23:14:27.492Z,58.45
2023-09-29T23:16:55.271Z,58.46
2023-09-29T23:19:22.100Z,58.51
2023-09-29T23:21:48.939Z,58.72
2023-09-29T23:24:15.795Z,58.44
2023-09-29T23:26:42.641Z,58.51
2023-09-29T23:29:09.625Z,58.44
2023-09-29T23:31:36.720Z,58.67
2023-09-29T23:34:03.649Z,58.55
2023-09-29T23:36:30.624Z,58.49
2023-09-29T23:38:58.174Z,58.69
2023-09-29T23:41:26.592Z,58.52
2023-09-29T23:43:53.704Z,58.67
2023-09-29T23:46:20.631Z,58.66
2023-09-29T23:48:47.815Z,58.55
2023-09-29T23:51:14.700Z,58.72
2023-09-29T23:53:41.591Z,58.65
2023-09-29T23:56:09.907Z,58.63
2023-09-29T23:58:40.476Z,58.63
